sensor_id;sensor_type;location;lat;lon;timestamp;P1;durP1;ratioP1;P2;durP2;ratioP2
12550;SDS011;6341;51.434;6.792;2022-07-22T00:02:59;6.07;;;2.83;;
12550;SDS011;6341;51.434;6.792;2022-07-22T00:08:24;11.47;;;3.97;;
12550;SDS011;6341;51.434;6.792;2022-07-22T00:13:47;7.70;;;3.23;;
12550;SDS011;6341;51.434;6.792;2022-07-22T00:19:13;9.47;;;4.63;;
12550;SDS011;6341;51.434;6.792;2022-07-22T00:24:36;6.67;;;3.47;;
12550;SDS011;6341;51.434;6.792;2022-07-22T00:30:00;8.07;;;3.67;;
12550;SDS011;6341;51.434;6.792;2022-07-22T00:35:24;7.43;;;3.27;;
12550;SDS011;6341;51.434;6.792;2022-07-22T00:40:48;9.07;;;4.03;;
12550;SDS011;6341;51.434;6.792;2022-07-22T00:46:13;10.97;;;3.80;;
12550;SDS011;6341;51.434;6.792;2022-07-22T00:51:38;7.10;;;3.77;;
12550;SDS011;6341;51.434;6.792;2022-07-22T00:57:02;5.53;;;3.50;;
12550;SDS011;6341;51.434;6.792;2022-07-22T01:02:26;7.00;;;3.60;;
12550;SDS011;6341;51.434;6.792;2022-07-22T01:07:51;8.00;;;4.07;;
12550;SDS011;6341;51.434;6.792;2022-07-22T01:19:51;9.97;;;3.90;;
12550;SDS011;6341;51.434;6.792;2022-07-22T01:25:16;7.03;;;4.13;;
12550;SDS011;6341;51.434;6.792;2022-07-22T01:30:41;7.87;;;3.50;;
12550;SDS011;6341;51.434;6.792;2022-07-22T01:36:05;7.83;;;4.27;;
12550;SDS011;6341;51.434;6.792;2022-07-22T01:41:30;9.13;;;5.13;;
12550;SDS011;6341;51.434;6.792;2022-07-22T01:46:54;12.20;;;8.40;;
12550;SDS011;6341;51.434;6.792;2022-07-22T01:52:19;15.23;;;10.50;;
12550;SDS011;6341;51.434;6.792;2022-07-22T01:57:43;12.40;;;8.73;;
12550;SDS011;6341;51.434;6.792;2022-07-22T02:03:07;10.47;;;7.03;;
12550;SDS011;6341;51.434;6.792;2022-07-22T02:08:34;9.77;;;5.57;;
12550;SDS011;6341;51.434;6.792;2022-07-22T02:13:59;9.57;;;4.30;;
12550;SDS011;6341;51.434;6.792;2022-07-22T02:19:23;4.57;;;3.30;;
12550;SDS011;6341;51.434;6.792;2022-07-22T02:24:46;3.93;;;3.10;;
12550;SDS011;6341;51.434;6.792;2022-07-22T02:30:11;4.03;;;2.87;;
12550;SDS011;6341;51.434;6.792;2022-07-22T02:35:35;5.93;;;3.57;;
12550;SDS011;6341;51.434;6.792;2022-07-22T02:40:58;3.87;;;3.40;;
12550;SDS011;6341;51.434;6.792;2022-07-22T02:46:23;3.43;;;3.03;;
12550;SDS011;6341;51.434;6.792;2022-07-22T02:51:48;4.47;;;2.73;;
12550;SDS011;6341;51.434;6.792;2022-07-22T02:57:11;5.53;;;3.60;;
12550;SDS011;6341;51.434;6.792;2022-07-22T03:02:36;7.00;;;4.57;;
12550;SDS011;6341;51.434;6.792;2022-07-22T03:08:00;6.73;;;4.00;;
12550;SDS011;6341;51.434;6.792;2022-07-22T03:13:24;8.90;;;4.57;;
12550;SDS011;6341;51.434;6.792;2022-07-22T03:18:49;8.83;;;4.30;;
12550;SDS011;6341;51.434;6.792;2022-07-22T03:24:15;10.60;;;4.37;;
12550;SDS011;6341;51.434;6.792;2022-07-22T03:29:39;5.93;;;2.73;;
12550;SDS011;6341;51.434;6.792;2022-07-22T03:35:05;8.00;;;2.70;;
12550;SDS011;6341;51.434;6.792;2022-07-22T03:40:29;5.07;;;2.23;;
12550;SDS011;6341;51.434;6.792;2022-07-22T03:45:53;5.73;;;2.60;;
12550;SDS011;6341;51.434;6.792;2022-07-22T03:51:18;5.33;;;2.53;;
12550;SDS011;6341;51.434;6.792;2022-07-22T03:56:42;8.57;;;2.40;;
12550;SDS011;6341;51.434;6.792;2022-07-22T04:02:06;4.97;;;2.17;;
12550;SDS011;6341;51.434;6.792;2022-07-22T04:07:32;4.37;;;2.20;;
12550;SDS011;6341;51.434;6.792;2022-07-22T04:12:56;5.50;;;2.53;;
12550;SDS011;6341;51.434;6.792;2022-07-22T04:18:21;4.40;;;2.10;;
12550;SDS011;6341;51.434;6.792;2022-07-22T04:23:47;4.37;;;2.13;;
12550;SDS011;6341;51.434;6.792;2022-07-22T04:29:11;4.27;;;2.13;;
12550;SDS011;6341;51.434;6.792;2022-07-22T04:34:34;4.47;;;2.00;;
12550;SDS011;6341;51.434;6.792;2022-07-22T04:39:59;4.90;;;2.17;;
12550;SDS011;6341;51.434;6.792;2022-07-22T04:45:25;3.37;;;2.20;;
12550;SDS011;6341;51.434;6.792;2022-07-22T04:50:48;4.97;;;2.20;;
12550;SDS011;6341;51.434;6.792;2022-07-22T04:56:13;4.47;;;1.83;;
12550;SDS011;6341;51.434;6.792;2022-07-22T05:01:39;2.60;;;1.80;;
12550;SDS011;6341;51.434;6.792;2022-07-22T05:07:03;6.57;;;2.40;;
12550;SDS011;6341;51.434;6.792;2022-07-22T05:12:28;5.53;;;1.97;;
12550;SDS011;6341;51.434;6.792;2022-07-22T05:17:51;5.60;;;2.20;;
12550;SDS011;6341;51.434;6.792;2022-07-22T05:23:15;8.17;;;2.80;;
12550;SDS011;6341;51.434;6.792;2022-07-22T05:28:41;5.20;;;2.10;;
12550;SDS011;6341;51.434;6.792;2022-07-22T05:34:04;5.50;;;2.10;;
12550;SDS011;6341;51.434;6.792;2022-07-22T05:39:29;5.47;;;2.00;;
12550;SDS011;6341;51.434;6.792;2022-07-22T05:44:54;11.17;;;2.40;;
12550;SDS011;6341;51.434;6.792;2022-07-22T05:50:18;3.70;;;1.90;;
12550;SDS011;6341;51.434;6.792;2022-07-22T05:55:42;5.27;;;2.00;;
12550;SDS011;6341;51.434;6.792;2022-07-22T06:01:07;7.60;;;2.10;;
12550;SDS011;6341;51.434;6.792;2022-07-22T06:06:31;9.43;;;2.00;;
12550;SDS011;6341;51.434;6.792;2022-07-22T06:11:55;3.43;;;1.70;;
12550;SDS011;6341;51.434;6.792;2022-07-22T06:17:21;4.73;;;2.00;;
12550;SDS011;6341;51.434;6.792;2022-07-22T06:22:44;7.97;;;2.00;;
12550;SDS011;6341;51.434;6.792;2022-07-22T06:28:08;4.97;;;1.63;;
12550;SDS011;6341;51.434;6.792;2022-07-22T06:33:33;6.97;;;2.30;;
12550;SDS011;6341;51.434;6.792;2022-07-22T06:38:59;3.83;;;1.80;;
12550;SDS011;6341;51.434;6.792;2022-07-22T06:44:22;6.93;;;2.20;;
12550;SDS011;6341;51.434;6.792;2022-07-22T06:49:47;5.77;;;1.67;;
12550;SDS011;6341;51.434;6.792;2022-07-22T06:55:13;5.43;;;1.90;;
12550;SDS011;6341;51.434;6.792;2022-07-22T07:00:37;4.33;;;2.00;;
12550;SDS011;6341;51.434;6.792;2022-07-22T07:06:03;9.37;;;2.03;;
12550;SDS011;6341;51.434;6.792;2022-07-22T07:11:27;3.73;;;1.57;;
12550;SDS011;6341;51.434;6.792;2022-07-22T07:16:53;4.47;;;2.30;;
12550;SDS011;6341;51.434;6.792;2022-07-22T07:22:20;4.43;;;2.23;;
12550;SDS011;6341;51.434;6.792;2022-07-22T07:27:44;6.07;;;2.10;;
12550;SDS011;6341;51.434;6.792;2022-07-22T07:33:08;8.77;;;2.40;;
12550;SDS011;6341;51.434;6.792;2022-07-22T07:38:33;5.87;;;1.90;;
12550;SDS011;6341;51.434;6.792;2022-07-22T07:43:57;5.57;;;2.00;;
12550;SDS011;6341;51.434;6.792;2022-07-22T07:49:21;5.67;;;2.17;;
12550;SDS011;6341;51.434;6.792;2022-07-22T07:54:48;4.30;;;2.00;;
12550;SDS011;6341;51.434;6.792;2022-07-22T08:00:31;4.30;;;1.90;;
12550;SDS011;6341;51.434;6.792;2022-07-22T08:05:55;9.43;;;2.30;;
12550;SDS011;6341;51.434;6.792;2022-07-22T08:11:23;6.47;;;2.10;;
12550;SDS011;6341;51.434;6.792;2022-07-22T08:16:47;7.87;;;2.60;;
12550;SDS011;6341;51.434;6.792;2022-07-22T08:22:10;4.40;;;1.87;;
12550;SDS011;6341;51.434;6.792;2022-07-22T08:27:36;3.33;;;1.50;;
12550;SDS011;6341;51.434;6.792;2022-07-22T08:33:03;4.13;;;1.93;;
12550;SDS011;6341;51.434;6.792;2022-07-22T08:38:26;7.07;;;2.10;;
12550;SDS011;6341;51.434;6.792;2022-07-22T08:43:52;4.77;;;2.07;;
12550;SDS011;6341;51.434;6.792;2022-07-22T08:49:19;4.93;;;2.20;;
12550;SDS011;6341;51.434;6.792;2022-07-22T08:54:42;5.03;;;2.07;;
12550;SDS011;6341;51.434;6.792;2022-07-22T09:00:12;10.43;;;2.90;;
12550;SDS011;6341;51.434;6.792;2022-07-22T09:05:38;4.60;;;2.30;;
12550;SDS011;6341;51.434;6.792;2022-07-22T09:11:14;4.53;;;2.57;;
12550;SDS011;6341;51.434;6.792;2022-07-22T09:57:26;8.93;;;5.60;;
12550;SDS011;6341;51.434;6.792;2022-07-22T10:03:03;8.97;;;5.17;;
12550;SDS011;6341;51.434;6.792;2022-07-22T10:08:38;10.33;;;5.97;;
12550;SDS011;6341;51.434;6.792;2022-07-22T10:14:03;9.37;;;5.93;;
12550;SDS011;6341;51.434;6.792;2022-07-22T10:19:29;11.67;;;6.20;;
12550;SDS011;6341;51.434;6.792;2022-07-22T10:24:58;9.13;;;6.40;;
12550;SDS011;6341;51.434;6.792;2022-07-22T10:30:23;8.00;;;5.57;;
12550;SDS011;6341;51.434;6.792;2022-07-22T10:35:54;8.40;;;6.27;;
12550;SDS011;6341;51.434;6.792;2022-07-22T10:41:22;7.33;;;5.83;;
12550;SDS011;6341;51.434;6.792;2022-07-22T10:46:56;6.87;;;5.37;;
12550;SDS011;6341;51.434;6.792;2022-07-22T10:52:34;6.72;;;5.68;;
12550;SDS011;6341;51.434;6.792;2022-07-22T10:57:57;11.15;;;4.75;;
12550;SDS011;6341;51.434;6.792;2022-07-22T11:03:23;6.32;;;4.53;;
12550;SDS011;6341;51.434;6.792;2022-07-22T11:08:49;9.10;;;4.63;;
12550;SDS011;6341;51.434;6.792;2022-07-22T11:14:14;8.60;;;4.53;;
12550;SDS011;6341;51.434;6.792;2022-07-22T11:19:40;7.43;;;5.18;;
12550;SDS011;6341;51.434;6.792;2022-07-22T11:25:08;8.15;;;5.10;;
12550;SDS011;6341;51.434;6.792;2022-07-22T11:30:34;6.20;;;4.03;;
12550;SDS011;6341;51.434;6.792;2022-07-22T11:36:01;6.60;;;5.07;;
12550;SDS011;6341;51.434;6.792;2022-07-22T11:41:28;5.78;;;3.97;;
12550;SDS011;6341;51.434;6.792;2022-07-22T11:46:53;5.15;;;4.40;;
12550;SDS011;6341;51.434;6.792;2022-07-22T11:52:20;5.07;;;3.88;;
12550;SDS011;6341;51.434;6.792;2022-07-22T11:57:47;4.78;;;3.95;;
12550;SDS011;6341;51.434;6.792;2022-07-22T12:03:12;6.78;;;4.75;;
12550;SDS011;6341;51.434;6.792;2022-07-22T12:08:39;6.05;;;4.18;;
12550;SDS011;6341;51.434;6.792;2022-07-22T12:14:06;10.75;;;5.38;;
12550;SDS011;6341;51.434;6.792;2022-07-22T12:19:38;6.18;;;4.05;;
12550;SDS011;6341;51.434;6.792;2022-07-22T12:25:03;9.38;;;4.25;;
12550;SDS011;6341;51.434;6.792;2022-07-22T12:30:31;6.18;;;3.58;;
12550;SDS011;6341;51.434;6.792;2022-07-22T12:35:58;6.90;;;5.35;;
12550;SDS011;6341;51.434;6.792;2022-07-22T12:41:24;11.02;;;5.68;;
12550;SDS011;6341;51.434;6.792;2022-07-22T12:46:52;8.35;;;6.40;;
12550;SDS011;6341;51.434;6.792;2022-07-22T12:52:17;8.32;;;6.90;;
12550;SDS011;6341;51.434;6.792;2022-07-22T12:57:41;7.38;;;5.00;;
12550;SDS011;6341;51.434;6.792;2022-07-22T13:03:07;4.93;;;4.32;;
12550;SDS011;6341;51.434;6.792;2022-07-22T13:08:30;10.00;;;6.28;;
12550;SDS011;6341;51.434;6.792;2022-07-22T13:14:06;9.30;;;6.63;;
12550;SDS011;6341;51.434;6.792;2022-07-22T13:19:31;7.80;;;5.85;;
12550;SDS011;6341;51.434;6.792;2022-07-22T13:24:56;8.45;;;6.07;;
12550;SDS011;6341;51.434;6.792;2022-07-22T13:30:19;10.10;;;6.75;;
12550;SDS011;6341;51.434;6.792;2022-07-22T13:35:44;11.98;;;7.68;;
12550;SDS011;6341;51.434;6.792;2022-07-22T13:41:08;12.05;;;8.38;;
12550;SDS011;6341;51.434;6.792;2022-07-22T13:46:38;9.85;;;7.10;;
12550;SDS011;6341;51.434;6.792;2022-07-22T13:52:03;13.07;;;7.57;;
12550;SDS011;6341;51.434;6.792;2022-07-22T13:57:27;8.43;;;6.57;;
12550;SDS011;6341;51.434;6.792;2022-07-22T14:02:51;10.23;;;7.63;;
12550;SDS011;6341;51.434;6.792;2022-07-22T14:08:16;7.60;;;5.80;;
12550;SDS011;6341;51.434;6.792;2022-07-22T14:13:43;7.50;;;6.05;;
12550;SDS011;6341;51.434;6.792;2022-07-22T14:19:08;6.78;;;5.38;;
12550;SDS011;6341;51.434;6.792;2022-07-22T14:24:36;8.73;;;5.40;;
12550;SDS011;6341;51.434;6.792;2022-07-22T14:29:59;9.82;;;6.20;;
12550;SDS011;6341;51.434;6.792;2022-07-22T14:35:27;10.13;;;7.13;;
12550;SDS011;6341;51.434;6.792;2022-07-22T14:40:52;9.75;;;6.53;;
12550;SDS011;6341;51.434;6.792;2022-07-22T14:46:15;11.02;;;6.18;;
12550;SDS011;6341;51.434;6.792;2022-07-22T14:51:39;11.73;;;7.03;;
12550;SDS011;6341;51.434;6.792;2022-07-22T14:57:06;10.82;;;5.82;;
12550;SDS011;6341;51.434;6.792;2022-07-22T15:02:32;8.57;;;5.65;;
12550;SDS011;6341;51.434;6.792;2022-07-22T15:07:56;10.38;;;5.93;;
12550;SDS011;6341;51.434;6.792;2022-07-22T15:13:22;7.20;;;5.00;;
12550;SDS011;6341;51.434;6.792;2022-07-22T15:18:48;6.22;;;4.30;;
12550;SDS011;6341;51.434;6.792;2022-07-22T15:24:12;7.63;;;3.95;;
12550;SDS011;6341;51.434;6.792;2022-07-22T15:29:42;8.70;;;4.28;;
12550;SDS011;6341;51.434;6.792;2022-07-22T15:35:06;8.00;;;4.20;;
12550;SDS011;6341;51.434;6.792;2022-07-22T15:40:30;8.98;;;4.43;;
12550;SDS011;6341;51.434;6.792;2022-07-22T15:45:55;14.23;;;3.75;;
12550;SDS011;6341;51.434;6.792;2022-07-22T15:51:19;6.45;;;3.00;;
12550;SDS011;6341;51.434;6.792;2022-07-22T15:56:42;5.93;;;3.28;;
12550;SDS011;6341;51.434;6.792;2022-07-22T16:02:08;8.00;;;3.50;;
12550;SDS011;6341;51.434;6.792;2022-07-22T16:07:33;7.28;;;3.40;;
12550;SDS011;6341;51.434;6.792;2022-07-22T16:12:58;8.88;;;3.50;;
12550;SDS011;6341;51.434;6.792;2022-07-22T16:18:23;7.57;;;3.30;;
12550;SDS011;6341;51.434;6.792;2022-07-22T16:23:47;6.47;;;3.10;;
12550;SDS011;6341;51.434;6.792;2022-07-22T16:29:11;5.35;;;3.15;;
12550;SDS011;6341;51.434;6.792;2022-07-22T16:34:36;5.67;;;3.03;;
12550;SDS011;6341;51.434;6.792;2022-07-22T16:40:00;7.33;;;2.87;;
12550;SDS011;6341;51.434;6.792;2022-07-22T16:45:30;7.33;;;2.73;;
12550;SDS011;6341;51.434;6.792;2022-07-22T16:50:56;6.87;;;2.50;;
12550;SDS011;6341;51.434;6.792;2022-07-22T16:56:19;4.43;;;2.80;;
12550;SDS011;6341;51.434;6.792;2022-07-22T17:01:43;5.33;;;2.63;;
12550;SDS011;6341;51.434;6.792;2022-07-22T17:07:10;4.33;;;2.63;;
12550;SDS011;6341;51.434;6.792;2022-07-22T17:12:34;5.10;;;3.17;;
12550;SDS011;6341;51.434;6.792;2022-07-22T17:17:57;4.87;;;2.53;;
12550;SDS011;6341;51.434;6.792;2022-07-22T17:23:23;4.07;;;2.60;;
12550;SDS011;6341;51.434;6.792;2022-07-22T17:28:47;3.27;;;2.37;;
12550;SDS011;6341;51.434;6.792;2022-07-22T17:34:12;6.80;;;2.50;;
12550;SDS011;6341;51.434;6.792;2022-07-22T17:39:37;5.77;;;2.30;;
12550;SDS011;6341;51.434;6.792;2022-07-22T17:45:01;4.10;;;2.13;;
12550;SDS011;6341;51.434;6.792;2022-07-22T17:50:27;8.13;;;2.00;;
12550;SDS011;6341;51.434;6.792;2022-07-22T17:55:52;5.27;;;2.50;;
12550;SDS011;6341;51.434;6.792;2022-07-22T18:01:37;4.37;;;2.30;;
12550;SDS011;6341;51.434;6.792;2022-07-22T18:07:00;3.80;;;2.20;;
12550;SDS011;6341;51.434;6.792;2022-07-22T18:12:26;5.53;;;2.10;;
12550;SDS011;6341;51.434;6.792;2022-07-22T18:17:52;5.43;;;1.90;;
12550;SDS011;6341;51.434;6.792;2022-07-22T18:23:15;6.17;;;2.10;;
12550;SDS011;6341;51.434;6.792;2022-07-22T18:28:40;4.27;;;1.97;;
12550;SDS011;6341;51.434;6.792;2022-07-22T18:34:05;4.97;;;2.40;;
12550;SDS011;6341;51.434;6.792;2022-07-22T18:39:28;3.00;;;1.90;;
12550;SDS011;6341;51.434;6.792;2022-07-22T18:44:53;5.57;;;1.90;;
12550;SDS011;6341;51.434;6.792;2022-07-22T18:50:22;2.93;;;1.87;;
12550;SDS011;6341;51.434;6.792;2022-07-22T18:55:53;5.73;;;2.23;;
12550;SDS011;6341;51.434;6.792;2022-07-22T19:01:18;4.17;;;2.10;;
12550;SDS011;6341;51.434;6.792;2022-07-22T19:06:42;3.70;;;1.90;;
12550;SDS011;6341;51.434;6.792;2022-07-22T19:12:06;2.73;;;2.10;;
12550;SDS011;6341;51.434;6.792;2022-07-22T19:17:32;4.13;;;2.13;;
12550;SDS011;6341;51.434;6.792;2022-07-22T19:22:56;3.97;;;2.17;;
12550;SDS011;6341;51.434;6.792;2022-07-22T19:28:21;7.30;;;2.20;;
12550;SDS011;6341;51.434;6.792;2022-07-22T19:33:48;6.33;;;2.20;;
12550;SDS011;6341;51.434;6.792;2022-07-22T19:39:12;6.10;;;2.27;;
12550;SDS011;6341;51.434;6.792;2022-07-22T19:44:43;2.90;;;1.90;;
12550;SDS011;6341;51.434;6.792;2022-07-22T19:50:09;7.60;;;1.90;;
12550;SDS011;6341;51.434;6.792;2022-07-22T19:55:33;6.07;;;2.27;;
12550;SDS011;6341;51.434;6.792;2022-07-22T20:00:58;5.10;;;2.57;;
12550;SDS011;6341;51.434;6.792;2022-07-22T20:06:24;4.40;;;2.07;;
12550;SDS011;6341;51.434;6.792;2022-07-22T20:11:47;4.20;;;2.00;;
12550;SDS011;6341;51.434;6.792;2022-07-22T20:17:10;5.20;;;2.30;;
12550;SDS011;6341;51.434;6.792;2022-07-22T20:22:35;3.97;;;2.10;;
12550;SDS011;6341;51.434;6.792;2022-07-22T20:27:59;7.93;;;2.37;;
12550;SDS011;6341;51.434;6.792;2022-07-22T20:33:22;3.40;;;2.30;;
12550;SDS011;6341;51.434;6.792;2022-07-22T20:38:48;4.40;;;2.20;;
12550;SDS011;6341;51.434;6.792;2022-07-22T20:44:11;4.00;;;2.10;;
12550;SDS011;6341;51.434;6.792;2022-07-22T20:49:35;4.83;;;2.50;;
12550;SDS011;6341;51.434;6.792;2022-07-22T20:55:00;3.30;;;2.20;;
12550;SDS011;6341;51.434;6.792;2022-07-22T21:00:24;6.90;;;2.57;;
12550;SDS011;6341;51.434;6.792;2022-07-22T21:05:48;8.67;;;2.40;;
12550;SDS011;6341;51.434;6.792;2022-07-22T21:11:14;4.33;;;2.47;;
12550;SDS011;6341;51.434;6.792;2022-07-22T21:16:38;6.43;;;2.20;;
12550;SDS011;6341;51.434;6.792;2022-07-22T21:22:01;6.17;;;2.80;;
12550;SDS011;6341;51.434;6.792;2022-07-22T21:27:29;7.00;;;2.90;;
12550;SDS011;6341;51.434;6.792;2022-07-22T21:32:54;8.40;;;2.40;;
12550;SDS011;6341;51.434;6.792;2022-07-22T21:38:17;6.30;;;2.67;;
12550;SDS011;6341;51.434;6.792;2022-07-22T21:43:42;5.50;;;2.10;;
12550;SDS011;6341;51.434;6.792;2022-07-22T21:49:06;6.63;;;3.07;;
12550;SDS011;6341;51.434;6.792;2022-07-22T21:54:30;4.80;;;2.03;;
12550;SDS011;6341;51.434;6.792;2022-07-22T21:59:55;3.77;;;2.20;;
12550;SDS011;6341;51.434;6.792;2022-07-22T22:05:18;5.97;;;2.53;;
12550;SDS011;6341;51.434;6.792;2022-07-22T22:10:42;7.73;;;2.80;;
12550;SDS011;6341;51.434;6.792;2022-07-22T22:16:13;4.50;;;2.27;;
12550;SDS011;6341;51.434;6.792;2022-07-22T22:21:37;4.03;;;2.40;;
12550;SDS011;6341;51.434;6.792;2022-07-22T22:27:00;7.47;;;3.77;;
12550;SDS011;6341;51.434;6.792;2022-07-22T22:32:25;6.67;;;3.30;;
12550;SDS011;6341;51.434;6.792;2022-07-22T22:37:49;6.73;;;2.97;;
12550;SDS011;6341;51.434;6.792;2022-07-22T22:43:12;2.97;;;2.23;;
12550;SDS011;6341;51.434;6.792;2022-07-22T22:48:37;8.23;;;3.60;;
12550;SDS011;6341;51.434;6.792;2022-07-22T22:54:00;8.60;;;3.20;;
12550;SDS011;6341;51.434;6.792;2022-07-22T22:59:26;4.30;;;3.20;;
12550;SDS011;6341;51.434;6.792;2022-07-22T23:04:51;6.73;;;3.00;;
12550;SDS011;6341;51.434;6.792;2022-07-22T23:10:14;5.63;;;3.10;;
12550;SDS011;6341;51.434;6.792;2022-07-22T23:15:39;5.97;;;3.70;;
12550;SDS011;6341;51.434;6.792;2022-07-22T23:21:04;6.20;;;3.70;;
12550;SDS011;6341;51.434;6.792;2022-07-22T23:26:29;5.77;;;2.83;;
12550;SDS011;6341;51.434;6.792;2022-07-22T23:31:52;5.00;;;2.70;;
12550;SDS011;6341;51.434;6.792;2022-07-22T23:37:19;5.57;;;2.97;;
12550;SDS011;6341;51.434;6.792;2022-07-22T23:42:42;4.10;;;3.70;;
12550;SDS011;6341;51.434;6.792;2022-07-22T23:48:06;6.17;;;4.53;;
12550;SDS011;6341;51.434;6.792;2022-07-22T23:53:36;8.23;;;3.93;;
12550;SDS011;6341;51.434;6.792;2022-07-22T23:59:00;6.20;;;3.60;;
